createdAt,value
2023-02-13T00:00:19.792Z,14.63
2023-02-13T00:02:46.905Z,13.98
2023-02-13T00:05:13.729Z,13.52
2023-02-13T00:07:40.508Z,14.23
2023-02-13T00:10:08.016Z,13.70
2023-02-13T00:12:35.448Z,14.13
2023-02-13T00:15:02.682Z,13.63
2023-02-13T00:17:29.558Z,13.23
2023-02-13T00:19:56.259Z,13.75
2023-02-13T00:22:23.023Z,15.15
2023-02-13T00:24:49.807Z,13.73
2023-02-13T00:27:16.520Z,13.48
2023-02-13T00:29:43.253Z,13.63
2023-02-13T00:32:10.120Z,12.68
2023-02-13T00:34:37.041Z,13.38
2023-02-13T00:37:04.001Z,12.95
2023-02-13T00:39:30.709Z,13.10
2023-02-13T00:41:57.458Z,13.15
2023-02-13T00:44:24.134Z,13.77
2023-02-13T00:46:50.890Z,13.00
2023-02-13T00:49:17.680Z,13.23
2023-02-13T00:51:44.464Z,12.65
2023-02-13T00:54:11.171Z,14.00
2023-02-13T00:56:38.302Z,14.10
2023-02-13T00:59:05.101Z,12.75
2023-02-13T01:01:31.892Z,14.25
2023-02-13T01:03:58.731Z,13.27
2023-02-13T01:06:25.564Z,13.55
2023-02-13T01:08:52.252Z,13.20
2023-02-13T01:11:19.320Z,13.57
2023-02-13T01:13:46.324Z,13.38
2023-02-13T01:16:15.816Z,13.65
2023-02-13T01:18:42.734Z,13.33
2023-02-13T01:21:16.961Z,13.32
2023-02-13T01:23:44.391Z,13.15
2023-02-13T01:26:17.489Z,13.75
2023-02-13T01:28:44.307Z,14.20
2023-02-13T01:31:11.358Z,13.48
2023-02-13T01:33:38.564Z,13.50
2023-02-13T01:36:10.769Z,12.95
2023-02-13T01:38:37.744Z,14.10
2023-02-13T01:41:04.742Z,12.85
2023-02-13T01:43:53.009Z,13.88
2023-02-13T01:46:42.821Z,13.65
2023-02-13T01:49:23.549Z,13.32
2023-02-13T01:51:54.581Z,13.77
2023-02-13T01:54:30.935Z,13.95
2023-02-13T01:57:09.132Z,13.95
2023-02-13T01:59:47.020Z,13.45
2023-02-13T02:02:14.828Z,13.80
2023-02-13T02:04:43.374Z,14.63
2023-02-13T02:07:30.840Z,14.02
2023-02-13T02:10:02.721Z,14.02
2023-02-13T02:12:35.197Z,14.10
2023-02-13T02:15:04.533Z,14.75
2023-02-13T02:17:31.251Z,14.45
2023-02-13T02:20:25.584Z,13.35
2023-02-13T02:22:52.249Z,12.77
2023-02-13T02:25:45.344Z,13.85
2023-02-13T02:28:45.508Z,14.40
2023-02-13T02:31:23.320Z,13.55
2023-02-13T02:34:14.210Z,14.55
2023-02-13T02:37:11.211Z,14.13
2023-02-13T02:39:55.901Z,13.77
2023-02-13T02:42:38.408Z,14.20
2023-02-13T02:45:23.599Z,13.60
2023-02-13T02:48:23.243Z,13.90
2023-02-13T02:51:12.095Z,12.80
2023-02-13T02:53:47.406Z,13.38
2023-02-13T02:56:18.706Z,13.18
2023-02-13T02:59:22.453Z,13.23
2023-02-13T03:02:09.250Z,13.80
2023-02-13T03:05:07.725Z,13.90
2023-02-13T03:07:34.452Z,13.65
2023-02-13T03:10:24.513Z,13.32
2023-02-13T03:13:22.115Z,13.98
2023-02-13T03:16:17.645Z,13.70
2023-02-13T03:19:14.760Z,13.35
2023-02-13T03:22:18.523Z,13.73
2023-02-13T03:25:10.919Z,14.25
2023-02-13T03:28:11.802Z,13.43
2023-02-13T03:30:44.723Z,13.52
2023-02-13T03:33:20.885Z,13.15
2023-02-13T03:36:11.959Z,13.80
2023-02-13T03:38:55.714Z,13.80
2023-02-13T03:41:30.175Z,13.73
2023-02-13T03:44:08.840Z,14.30
2023-02-13T03:46:39.792Z,13.15
2023-02-13T03:49:28.976Z,13.27
2023-02-13T03:52:02.925Z,13.07
2023-02-13T03:55:02.166Z,13.82
2023-02-13T03:57:50.557Z,13.43
2023-02-13T04:00:18.467Z,15.02
2023-02-13T04:03:05.790Z,14.77
2023-02-13T04:05:39.255Z,14.85
2023-02-13T04:08:05.986Z,13.93
2023-02-13T04:10:37.082Z,14.18
2023-02-13T04:13:17.972Z,13.50
2023-02-13T04:16:13.773Z,13.60
2023-02-13T04:18:41.953Z,15.57
2023-02-13T04:21:09.132Z,13.80
2023-02-13T04:23:37.076Z,14.55
2023-02-13T04:26:08.105Z,13.85
2023-02-13T04:28:34.889Z,14.30
2023-02-13T04:31:02.047Z,14.98
2023-02-13T04:33:29.084Z,13.88
2023-02-13T04:35:56.890Z,13.18
2023-02-13T04:38:23.873Z,14.10
2023-02-13T04:40:50.561Z,14.27
2023-02-13T04:43:17.272Z,13.32
2023-02-13T04:45:44.030Z,14.02
2023-02-13T04:48:10.749Z,14.05
2023-02-13T04:50:37.436Z,15.05
2023-02-13T04:53:04.112Z,14.02
2023-02-13T04:55:30.797Z,13.85
2023-02-13T04:57:57.623Z,14.48
2023-02-13T05:00:26.838Z,14.55
2023-02-13T05:02:53.997Z,15.65
2023-02-13T05:05:21.421Z,14.35
2023-02-13T05:07:48.165Z,14.07
2023-02-13T05:10:14.928Z,13.98
2023-02-13T05:12:41.619Z,14.13
2023-02-13T05:15:08.916Z,14.95
2023-02-13T05:17:35.626Z,14.05
2023-02-13T05:20:02.343Z,14.13
2023-02-13T05:22:47.486Z,14.88
2023-02-13T05:25:14.255Z,15.40
2023-02-13T05:27:40.927Z,14.63
2023-02-13T05:30:08.191Z,15.25
2023-02-13T05:32:34.924Z,13.82
2023-02-13T05:35:04.235Z,14.52
2023-02-13T05:37:31.517Z,14.83
2023-02-13T05:39:58.208Z,14.70
2023-02-13T05:42:24.968Z,15.30
2023-02-13T05:44:51.640Z,14.45
2023-02-13T05:47:18.357Z,14.95
2023-02-13T05:49:45.098Z,15.52
2023-02-13T05:52:11.852Z,15.73
2023-02-13T05:54:39.434Z,14.73
2023-02-13T05:57:06.289Z,15.27
2023-02-13T05:59:33.005Z,15.70
2023-02-13T06:01:59.827Z,15.35
2023-02-13T06:04:26.708Z,15.05
2023-02-13T06:06:53.425Z,15.52
2023-02-13T06:09:20.104Z,14.20
2023-02-13T06:11:46.799Z,15.38
2023-02-13T06:14:14.574Z,14.55
2023-02-13T06:16:41.586Z,15.40
2023-02-13T06:19:08.328Z,15.82
2023-02-13T06:21:37.904Z,15.80
2023-02-13T06:24:05.749Z,15.32
2023-02-13T06:26:32.778Z,15.05
2023-02-13T06:28:59.976Z,15.70
2023-02-13T06:31:27.521Z,15.55
2023-02-13T06:33:54.295Z,15.02
2023-02-13T06:36:21.160Z,16.73
2023-02-13T06:38:47.894Z,15.88
2023-02-13T06:41:14.628Z,15.43
2023-02-13T06:43:41.322Z,15.85
2023-02-13T06:46:08.948Z,15.95
2023-02-13T06:48:35.658Z,15.48
2023-02-13T06:51:02.702Z,14.80
2023-02-13T06:53:30.626Z,15.65
2023-02-13T06:55:57.706Z,16.00
2023-02-13T06:58:25.746Z,15.25
2023-02-13T07:00:53.017Z,15.35
2023-02-13T07:03:19.900Z,15.73
2023-02-13T07:05:46.832Z,15.68
2023-02-13T07:08:13.993Z,15.85
2023-02-13T07:10:42.042Z,14.93
2023-02-13T07:13:10.164Z,15.85
2023-02-13T07:15:37.611Z,15.43
2023-02-13T07:18:05.124Z,15.73
2023-02-13T07:20:32.559Z,15.75
2023-02-13T07:23:00.225Z,16.25
2023-02-13T07:25:28.065Z,15.00
2023-02-13T07:27:54.881Z,15.05
2023-02-13T07:30:21.760Z,15.38
2023-02-13T07:32:48.564Z,14.23
2023-02-13T07:35:15.441Z,15.80
2023-02-13T07:37:42.146Z,16.08
2023-02-13T07:40:09.436Z,15.70
2023-02-13T07:42:36.178Z,16.33
2023-02-13T07:45:05.690Z,16.92
2023-02-13T07:47:34.029Z,16.93
2023-02-13T07:50:01.357Z,16.52
2023-02-13T07:52:28.068Z,16.55
2023-02-13T07:54:54.748Z,16.23
2023-02-13T07:57:21.482Z,17.98
2023-02-13T07:59:48.284Z,16.67
2023-02-13T08:02:16.357Z,17.00
2023-02-13T08:04:46.692Z,16.08
2023-02-13T08:07:15.050Z,17.35
2023-02-13T08:10:02.325Z,16.88
2023-02-13T08:12:29.552Z,17.08
2023-02-13T08:14:56.278Z,18.17
2023-02-13T08:17:22.981Z,16.42
2023-02-13T08:19:49.946Z,17.02
2023-02-13T08:22:16.667Z,17.02
2023-02-13T08:24:43.406Z,17.88
2023-02-13T08:27:14.391Z,16.92
2023-02-13T08:29:41.685Z,16.27
2023-02-13T08:32:08.831Z,16.35
2023-02-13T08:34:35.646Z,15.85
2023-02-13T08:37:03.379Z,18.40
2023-02-13T08:39:30.176Z,17.90
2023-02-13T08:41:56.992Z,15.93
2023-02-13T08:44:23.722Z,16.40
2023-02-13T08:46:50.531Z,16.17
2023-02-13T08:49:17.421Z,15.73
2023-02-13T08:51:44.227Z,15.93
2023-02-13T08:54:11.072Z,16.15
2023-02-13T08:56:37.795Z,16.77
2023-02-13T08:59:04.505Z,16.63
2023-02-13T09:01:31.332Z,15.38
2023-02-13T09:03:58.144Z,16.10
2023-02-13T09:06:26.387Z,15.82
2023-02-13T09:08:53.745Z,15.95
2023-02-13T09:11:23.256Z,15.68
2023-02-13T09:13:53.608Z,15.87
2023-02-13T09:18:48.858Z,14.98
2023-02-13T09:21:16.215Z,16.23
2023-02-13T09:23:43.288Z,16.25
2023-02-13T09:26:12.617Z,15.27
2023-02-13T09:28:40.206Z,16.00
2023-02-13T09:31:12.977Z,15.88
2023-02-13T09:33:39.787Z,14.88
2023-02-13T09:36:14.530Z,14.63
2023-02-13T09:38:45.368Z,14.88
2023-02-13T09:41:20.896Z,15.32
2023-02-13T09:44:12.970Z,15.98
2023-02-13T09:46:41.266Z,15.43
2023-02-13T09:49:30.572Z,15.13
2023-02-13T09:51:58.272Z,15.05
2023-02-13T09:54:26.699Z,15.05
2023-02-13T09:57:00.504Z,14.82
2023-02-13T10:00:11.885Z,15.35
2023-02-13T10:02:56.801Z,14.68
2023-02-13T10:05:40.790Z,15.13
2023-02-13T10:08:33.572Z,14.77
2023-02-13T10:11:26.025Z,15.13
2023-02-13T10:14:08.422Z,15.40
2023-02-13T10:16:35.124Z,14.73
2023-02-13T10:19:36.266Z,15.25
2023-02-13T10:22:26.042Z,15.70
2023-02-13T10:25:24.209Z,14.95
2023-02-13T10:28:12.321Z,14.38
2023-02-13T10:30:56.592Z,14.77
2023-02-13T10:33:28.185Z,14.77
2023-02-13T10:35:55.025Z,13.80
2023-02-13T10:38:23.854Z,14.75
2023-02-13T10:41:21.113Z,15.00
2023-02-13T10:44:01.393Z,13.32
2023-02-13T10:46:45.314Z,15.43
2023-02-13T10:49:31.917Z,14.45
2023-02-13T10:52:17.680Z,13.73
2023-02-13T10:55:03.087Z,15.05
2023-02-13T10:58:01.877Z,12.85
2023-02-13T11:00:43.178Z,14.80
2023-02-13T11:03:30.198Z,13.30
2023-02-13T11:05:59.174Z,13.60
2023-02-13T11:08:33.195Z,13.50
2023-02-13T11:11:00.424Z,15.02
2023-02-13T11:13:29.927Z,14.57
2023-02-13T11:16:05.621Z,13.23
2023-02-13T11:18:39.880Z,13.32
2023-02-13T11:21:16.219Z,13.43
2023-02-13T11:23:45.630Z,13.73
2023-02-13T11:26:21.362Z,14.88
2023-02-13T11:28:53.550Z,13.10
2023-02-13T11:31:36.345Z,12.93
2023-02-13T11:34:21.964Z,13.93
2023-02-13T11:36:53.882Z,14.48
2023-02-13T11:39:22.868Z,13.25
2023-02-13T11:41:53.028Z,14.93
2023-02-13T11:44:27.094Z,13.93
2023-02-13T11:46:56.345Z,13.90
2023-02-13T11:49:24.417Z,14.13
2023-02-13T11:51:56.527Z,14.52
2023-02-13T11:54:45.584Z,14.43
2023-02-13T11:57:15.366Z,13.38
2023-02-13T11:59:44.885Z,14.00
2023-02-13T12:02:24.845Z,14.03
2023-02-13T12:04:54.373Z,12.55
2023-02-13T12:07:26.573Z,13.17
2023-02-13T12:10:03.592Z,12.88
2023-02-13T12:12:43.330Z,13.65
2023-02-13T12:15:27.163Z,14.02
2023-02-13T12:18:08.876Z,13.23
2023-02-13T12:21:03.648Z,13.57
2023-02-13T12:23:49.620Z,13.82
2023-02-13T12:26:44.186Z,13.30
2023-02-13T12:29:54.891Z,12.80
2023-02-13T12:32:33.289Z,13.00
2023-02-13T12:35:08.368Z,13.55
2023-02-13T12:37:56.451Z,13.93
2023-02-13T12:40:36.520Z,14.63
2023-02-13T12:43:57.062Z,13.80
2023-02-13T12:48:59.381Z,14.15
2023-02-13T12:51:48.990Z,13.50
2023-02-13T12:54:27.355Z,12.60
2023-02-13T12:57:13.801Z,12.15
2023-02-13T13:00:10.907Z,12.57
2023-02-13T13:02:56.161Z,13.02
2023-02-13T13:06:03.647Z,12.30
2023-02-13T13:08:43.097Z,13.13
2023-02-13T13:11:48.364Z,12.30
2023-02-13T13:14:52.264Z,12.88
2023-02-13T13:17:39.839Z,12.85
2023-02-13T13:20:44.033Z,16.20
2023-02-13T13:23:16.803Z,12.02
2023-02-13T13:26:02.283Z,12.35
2023-02-13T13:28:37.930Z,13.18
2023-02-13T13:31:05.963Z,12.77
2023-02-13T13:33:34.662Z,11.85
2023-02-13T13:36:09.283Z,11.90
2023-02-13T13:38:43.623Z,12.32
2023-02-13T13:41:31.990Z,12.45
2023-02-13T13:44:04.920Z,12.13
2023-02-13T13:46:50.813Z,11.20
2023-02-13T13:49:57.677Z,10.88
2023-02-13T13:52:39.911Z,11.43
2023-02-13T13:55:26.744Z,11.38
2023-02-13T13:58:00.577Z,12.10
2023-02-13T14:00:29.878Z,12.60
2023-02-13T14:02:59.418Z,11.88
2023-02-13T14:05:31.891Z,10.60
2023-02-13T14:08:00.375Z,12.30
2023-02-13T14:10:30.078Z,12.52
2023-02-13T14:12:56.790Z,12.35
2023-02-13T14:15:38.591Z,12.93
2023-02-13T14:18:14.333Z,12.52
2023-02-13T14:20:53.004Z,11.95
2023-02-13T14:23:31.917Z,12.43
2023-02-13T14:26:16.919Z,12.23
2023-02-13T14:28:49.442Z,12.75
2023-02-13T14:31:22.371Z,12.68
2023-02-13T14:34:00.007Z,13.20
2023-02-13T14:36:33.171Z,12.18
2023-02-13T14:39:05.058Z,12.75
2023-02-13T14:41:56.482Z,13.40
2023-02-13T14:44:47.217Z,13.35
2023-02-13T14:47:31.375Z,13.68
2023-02-13T14:50:01.797Z,13.07
2023-02-13T14:52:35.702Z,12.90
2023-02-13T14:55:12.979Z,13.50
2023-02-13T14:57:50.782Z,13.55
2023-02-13T15:00:38.314Z,12.90
2023-02-13T15:03:25.098Z,13.23
2023-02-13T15:05:56.317Z,13.40
2023-02-13T15:08:26.629Z,13.13
2023-02-13T15:13:33.651Z,12.85
2023-02-13T15:16:11.607Z,12.20
2023-02-13T15:19:04.752Z,13.38
2023-02-13T15:21:34.119Z,13.45
2023-02-13T15:24:00.856Z,13.00
2023-02-13T15:26:29.193Z,12.85
2023-02-13T15:29:26.633Z,13.00
2023-02-13T15:31:56.734Z,12.48
2023-02-13T15:34:34.361Z,12.32
2023-02-13T15:37:01.546Z,12.63
2023-02-13T15:39:30.935Z,13.55
2023-02-13T15:42:00.392Z,14.23
2023-02-13T15:44:32.197Z,12.50
2023-02-13T15:47:26.462Z,12.48
2023-02-13T15:49:53.913Z,13.15
2023-02-13T15:52:32.288Z,12.48
2023-02-13T15:54:59.854Z,12.90
2023-02-13T15:57:27.577Z,12.75
2023-02-13T16:00:00.191Z,13.27
2023-02-13T16:02:47.480Z,11.88
2023-02-13T16:05:17.144Z,12.88
2023-02-13T16:07:54.484Z,12.65
2023-02-13T16:10:28.521Z,12.65
2023-02-13T16:12:56.943Z,12.80
2023-02-13T16:15:27.774Z,12.40
2023-02-13T16:17:55.281Z,13.10
2023-02-13T16:20:27.676Z,12.90
2023-02-13T16:22:59.093Z,12.85
2023-02-13T16:25:30.788Z,13.07
2023-02-13T16:28:03.958Z,12.50
2023-02-13T16:30:34.982Z,12.30
2023-02-13T16:33:17.130Z,12.40
2023-02-13T16:35:57.951Z,13.00
2023-02-13T16:38:34.541Z,11.95
2023-02-13T16:41:19.214Z,12.75
2023-02-13T16:43:48.729Z,12.85
2023-02-13T16:46:15.420Z,12.60
2023-02-13T16:48:44.612Z,13.10
2023-02-13T16:51:11.835Z,12.98
2023-02-13T16:53:39.572Z,12.32
2023-02-13T16:56:08.508Z,11.75
2023-02-13T16:58:35.597Z,12.10
2023-02-13T17:01:04.754Z,11.32
2023-02-13T17:03:34.564Z,12.77
2023-02-13T17:06:02.728Z,11.43
2023-02-13T17:08:31.532Z,10.98
2023-02-13T17:11:04.728Z,11.35
2023-02-13T17:13:31.681Z,11.05
2023-02-13T17:16:00.016Z,11.05
2023-02-13T17:18:27.681Z,10.68
2023-02-13T17:20:55.034Z,10.85
2023-02-13T17:23:24.012Z,10.70
2023-02-13T17:25:52.649Z,10.80
2023-02-13T17:28:29.155Z,11.80
2023-02-13T17:30:58.550Z,11.73
2023-02-13T17:33:31.581Z,12.18
2023-02-13T17:35:58.410Z,11.25
2023-02-13T17:38:25.363Z,11.65
2023-02-13T17:40:52.163Z,11.70
2023-02-13T17:43:19.886Z,11.27
2023-02-13T17:45:47.587Z,11.35
2023-02-13T17:48:14.419Z,11.13
2023-02-13T17:50:41.559Z,11.73
2023-02-13T17:53:21.029Z,11.65
2023-02-13T17:55:48.031Z,11.90
2023-02-13T17:58:14.740Z,12.20
2023-02-13T18:00:41.788Z,11.68
2023-02-13T18:03:08.577Z,11.57
2023-02-13T18:05:35.303Z,12.35
2023-02-13T18:08:04.825Z,12.38
2023-02-13T18:10:35.134Z,12.70
2023-02-13T18:13:05.325Z,12.27
2023-02-13T18:15:41.085Z,13.02
2023-02-13T18:18:08.063Z,13.38
2023-02-13T18:20:34.826Z,13.13
2023-02-13T18:23:01.695Z,13.32
2023-02-13T18:25:29.141Z,14.70
2023-02-13T18:27:55.998Z,14.07
2023-02-13T18:30:22.858Z,14.82
2023-02-13T18:32:54.435Z,13.80
2023-02-13T18:35:22.590Z,12.65
2023-02-13T18:37:49.428Z,12.38
2023-02-13T18:40:17.747Z,12.98
2023-02-13T18:42:45.192Z,12.30
2023-02-13T18:45:12.214Z,12.68
2023-02-13T18:47:39.410Z,12.40
2023-02-13T18:50:06.809Z,12.70
2023-02-13T18:52:34.907Z,12.15
2023-02-13T18:55:01.626Z,11.80
2023-02-13T18:57:28.570Z,12.65
2023-02-13T18:59:55.404Z,12.90
2023-02-13T19:02:22.176Z,11.88
2023-02-13T19:04:48.953Z,12.30
2023-02-13T19:07:15.658Z,13.57
2023-02-13T19:09:42.508Z,13.60
2023-02-13T19:12:09.371Z,12.85
2023-02-13T19:14:36.159Z,14.00
2023-02-13T19:17:03.468Z,13.05
2023-02-13T19:19:30.286Z,13.57
2023-02-13T19:21:57.182Z,12.95
2023-02-13T19:24:24.176Z,12.75
2023-02-13T19:26:50.994Z,12.55
2023-02-13T19:29:17.732Z,13.15
2023-02-13T19:31:44.779Z,13.02
2023-02-13T19:34:11.538Z,12.55
2023-02-13T19:36:38.545Z,13.05
2023-02-13T19:39:08.280Z,12.65
2023-02-13T19:41:35.913Z,13.60
2023-02-13T19:44:03.066Z,12.90
2023-02-13T19:46:31.434Z,12.98
2023-02-13T19:48:58.760Z,12.45
2023-02-13T19:51:28.214Z,12.88
2023-02-13T19:54:00.177Z,14.60
2023-02-13T19:56:28.643Z,12.57
2023-02-13T19:58:55.664Z,13.00
2023-02-13T20:01:25.156Z,13.65
2023-02-13T20:03:52.439Z,13.70
2023-02-13T20:06:25.909Z,14.02
2023-02-13T20:08:53.409Z,13.73
2023-02-13T20:11:21.980Z,13.63
2023-02-13T20:13:55.568Z,13.85
2023-02-13T20:16:23.142Z,16.08
2023-02-13T20:18:50.303Z,15.65
2023-02-13T20:21:17.946Z,14.70
2023-02-13T20:23:48.982Z,13.55
2023-02-13T20:26:16.794Z,13.77
2023-02-13T20:28:45.025Z,13.20
2023-02-13T20:31:12.977Z,13.40
2023-02-13T20:33:40.559Z,12.98
2023-02-13T20:36:10.341Z,13.82
2023-02-13T20:38:37.271Z,12.48
2023-02-13T20:41:11.769Z,12.70
2023-02-13T20:43:38.833Z,12.27
2023-02-13T20:46:06.277Z,12.43
2023-02-13T20:48:38.929Z,12.20
2023-02-13T20:51:08.279Z,13.60
2023-02-13T20:53:35.519Z,11.07
2023-02-13T20:56:08.321Z,12.80
2023-02-13T20:58:35.138Z,12.48
2023-02-13T21:01:02.423Z,11.07
2023-02-13T21:03:29.584Z,12.18
2023-02-13T21:05:56.319Z,12.70
2023-02-13T21:08:23.051Z,13.60
2023-02-13T21:10:49.770Z,14.93
2023-02-13T21:13:16.483Z,16.75
2023-02-13T21:15:48.046Z,13.93
2023-02-13T21:18:15.398Z,15.85
2023-02-13T21:20:42.112Z,13.90
2023-02-13T21:23:08.899Z,14.27
2023-02-13T21:25:35.615Z,14.20
2023-02-13T21:28:02.405Z,13.98
2023-02-13T21:30:29.138Z,15.70
2023-02-13T21:32:55.983Z,16.55
2023-02-13T21:35:22.667Z,16.10
2023-02-13T21:37:49.412Z,15.52
2023-02-13T21:40:16.918Z,14.43
2023-02-13T21:42:43.653Z,14.88
2023-02-13T21:45:11.895Z,15.63
2023-02-13T21:47:38.665Z,14.55
2023-02-13T21:50:06.506Z,16.00
2023-02-13T21:52:34.715Z,14.27
2023-02-13T21:55:01.382Z,14.85
2023-02-13T21:57:28.049Z,15.55
2023-02-13T21:59:56.298Z,15.75
2023-02-13T22:02:24.035Z,17.35
2023-02-13T22:04:50.806Z,15.32
2023-02-13T22:07:17.498Z,14.63
2023-02-13T22:09:44.240Z,14.00
2023-02-13T22:12:10.903Z,14.55
2023-02-13T22:14:37.733Z,13.98
2023-02-13T22:17:04.490Z,14.63
2023-02-13T22:19:31.330Z,14.90
2023-02-13T22:21:58.022Z,14.02
2023-02-13T22:24:26.244Z,13.98
2023-02-13T22:26:52.968Z,14.13
2023-02-13T22:29:22.881Z,12.90
2023-02-13T22:31:50.092Z,12.80
2023-02-13T22:34:16.909Z,14.23
2023-02-13T22:36:43.856Z,13.68
2023-02-13T22:39:11.497Z,14.90
2023-02-13T22:41:38.782Z,13.75
2023-02-13T22:44:05.668Z,13.95
2023-02-13T22:46:33.593Z,12.88
2023-02-13T22:49:00.429Z,13.35
2023-02-13T22:51:30.267Z,13.25
2023-02-13T22:53:58.344Z,12.98
2023-02-13T22:56:26.732Z,14.45
2023-02-13T22:58:53.777Z,13.63
2023-02-13T23:01:22.940Z,12.85
2023-02-13T23:03:49.975Z,13.55
2023-02-13T23:06:17.375Z,13.65
2023-02-13T23:08:44.817Z,13.73
2023-02-13T23:11:32.904Z,13.95
2023-02-13T23:14:00.337Z,14.98
2023-02-13T23:16:27.794Z,13.93
2023-02-13T23:18:56.354Z,13.63
2023-02-13T23:21:23.933Z,13.95
2023-02-13T23:23:51.158Z,14.43
2023-02-13T23:26:18.372Z,13.60
2023-02-13T23:28:45.059Z,13.35
2023-02-13T23:31:11.849Z,13.25
2023-02-13T23:33:38.613Z,13.82
2023-02-13T23:36:05.769Z,14.00
2023-02-13T23:38:32.489Z,14.20
2023-02-13T23:41:09.285Z,13.32
2023-02-13T23:43:36.363Z,12.65
2023-02-13T23:46:07.183Z,12.98
2023-02-13T23:48:34.593Z,13.32
2023-02-13T23:51:02.026Z,13.95
2023-02-13T23:53:29.122Z,13.80
2023-02-13T23:55:55.895Z,12.98
2023-02-13T23:58:22.953Z,13.93
